sensor_id;sensor_type;location;lat;lon;timestamp;pressure;altitude;pressure_sealevel;temperature;humidity
60240;BME280;46102;39.012;-7.064;2022-10-16T00:00:40;98413.75;;;19.30;59.25
60240;BME280;46102;39.012;-7.064;2022-10-16T00:02:41;98416.97;;;19.32;59.78
60240;BME280;46102;39.012;-7.064;2022-10-16T00:04:42;98412.13;;;19.26;59.64
60240;BME280;46102;39.012;-7.064;2022-10-16T00:06:43;98411.75;;;19.27;59.79
60240;BME280;46102;39.012;-7.064;2022-10-16T00:08:44;98414.53;;;19.27;60.08
60240;BME280;46102;39.012;-7.064;2022-10-16T00:10:45;98411.63;;;19.20;60.23
60240;BME280;46102;39.012;-7.064;2022-10-16T00:12:46;98410.91;;;19.23;60.71
60240;BME280;46102;39.012;-7.064;2022-10-16T00:14:47;98405.00;;;19.28;60.90
60240;BME280;46102;39.012;-7.064;2022-10-16T00:16:47;98396.59;;;19.25;60.92
60240;BME280;46102;39.012;-7.064;2022-10-16T00:18:48;98404.16;;;19.24;60.88
60240;BME280;46102;39.012;-7.064;2022-10-16T00:20:49;98406.91;;;19.21;60.94
60240;BME280;46102;39.012;-7.064;2022-10-16T00:22:50;98407.34;;;19.26;60.80
60240;BME280;46102;39.012;-7.064;2022-10-16T00:24:50;98403.22;;;19.13;61.06
60240;BME280;46102;39.012;-7.064;2022-10-16T00:26:51;98400.72;;;19.04;61.17
60240;BME280;46102;39.012;-7.064;2022-10-16T00:28:52;98397.47;;;18.99;61.39
60240;BME280;46102;39.012;-7.064;2022-10-16T00:30:53;98404.25;;;19.01;61.73
60240;BME280;46102;39.012;-7.064;2022-10-16T00:32:54;98398.22;;;18.96;62.04
60240;BME280;46102;39.012;-7.064;2022-10-16T00:34:54;98398.53;;;18.87;62.21
60240;BME280;46102;39.012;-7.064;2022-10-16T00:36:55;98391.72;;;18.84;62.28
60240;BME280;46102;39.012;-7.064;2022-10-16T00:38:57;98401.66;;;18.85;62.35
60240;BME280;46102;39.012;-7.064;2022-10-16T00:41:00;98397.34;;;18.88;62.67
60240;BME280;46102;39.012;-7.064;2022-10-16T00:43:01;98398.09;;;18.85;62.72
60240;BME280;46102;39.012;-7.064;2022-10-16T00:45:02;98388.94;;;18.84;62.86
60240;BME280;46102;39.012;-7.064;2022-10-16T00:47:03;98378.66;;;18.88;62.87
60240;BME280;46102;39.012;-7.064;2022-10-16T00:49:10;98372.69;;;18.86;63.06
60240;BME280;46102;39.012;-7.064;2022-10-16T00:51:11;98377.00;;;18.80;63.13
60240;BME280;46102;39.012;-7.064;2022-10-16T00:53:12;98372.16;;;18.77;63.20
60240;BME280;46102;39.012;-7.064;2022-10-16T00:55:13;98362.59;;;18.75;63.29
60240;BME280;46102;39.012;-7.064;2022-10-16T00:57:14;98373.78;;;18.78;63.21
60240;BME280;46102;39.012;-7.064;2022-10-16T00:59:25;98372.47;;;18.72;63.47
60240;BME280;46102;39.012;-7.064;2022-10-16T01:01:26;98374.81;;;18.70;63.41
60240;BME280;46102;39.012;-7.064;2022-10-16T01:03:33;98367.25;;;18.67;63.57
60240;BME280;46102;39.012;-7.064;2022-10-16T01:05:42;98364.78;;;18.62;63.73
60240;BME280;46102;39.012;-7.064;2022-10-16T01:08:18;98359.66;;;18.64;63.83
60240;BME280;46102;39.012;-7.064;2022-10-16T01:10:40;98361.56;;;18.60;64.00
60240;BME280;46102;39.012;-7.064;2022-10-16T01:15:15;98363.09;;;18.54;64.01
60240;BME280;46102;39.012;-7.064;2022-10-16T01:17:25;98365.00;;;18.49;64.20
60240;BME280;46102;39.012;-7.064;2022-10-16T01:19:44;98365.38;;;18.48;64.36
60240;BME280;46102;39.012;-7.064;2022-10-16T01:21:52;98356.16;;;18.40;64.58
60240;BME280;46102;39.012;-7.064;2022-10-16T01:28:08;98348.97;;;18.39;64.44
60240;BME280;46102;39.012;-7.064;2022-10-16T01:30:23;98344.19;;;18.36;64.65
60240;BME280;46102;39.012;-7.064;2022-10-16T01:32:37;98355.63;;;18.31;64.79
60240;BME280;46102;39.012;-7.064;2022-10-16T01:34:53;98351.56;;;18.25;64.91
60240;BME280;46102;39.012;-7.064;2022-10-16T01:37:05;98353.78;;;18.16;65.31
60240;BME280;46102;39.012;-7.064;2022-10-16T01:39:10;98348.91;;;18.09;65.63
60240;BME280;46102;39.012;-7.064;2022-10-16T01:41:34;98347.31;;;18.08;65.66
60240;BME280;46102;39.012;-7.064;2022-10-16T01:43:44;98340.53;;;18.05;66.04
60240;BME280;46102;39.012;-7.064;2022-10-16T01:45:47;98344.50;;;18.04;65.98
60240;BME280;46102;39.012;-7.064;2022-10-16T01:47:49;98338.81;;;17.97;66.29
60240;BME280;46102;39.012;-7.064;2022-10-16T01:49:53;98344.66;;;17.92;66.55
60240;BME280;46102;39.012;-7.064;2022-10-16T01:51:57;98345.06;;;17.91;66.56
60240;BME280;46102;39.012;-7.064;2022-10-16T01:54:02;98343.84;;;17.88;66.58
60240;BME280;46102;39.012;-7.064;2022-10-16T01:56:06;98342.56;;;17.85;66.75
60240;BME280;46102;39.012;-7.064;2022-10-16T01:58:09;98344.56;;;17.85;66.68
60240;BME280;46102;39.012;-7.064;2022-10-16T02:00:12;98350.38;;;17.80;66.80
60240;BME280;46102;39.012;-7.064;2022-10-16T02:02:15;98349.97;;;17.78;66.77
60240;BME280;46102;39.012;-7.064;2022-10-16T02:04:27;98340.41;;;17.75;66.80
60240;BME280;46102;39.012;-7.064;2022-10-16T02:06:29;98340.34;;;17.72;67.03
60240;BME280;46102;39.012;-7.064;2022-10-16T02:08:31;98353.38;;;17.67;67.16
60240;BME280;46102;39.012;-7.064;2022-10-16T02:10:32;98347.31;;;17.62;67.52
60240;BME280;46102;39.012;-7.064;2022-10-16T02:12:36;98349.59;;;17.56;67.84
60240;BME280;46102;39.012;-7.064;2022-10-16T02:14:40;98351.78;;;17.47;67.78
60240;BME280;46102;39.012;-7.064;2022-10-16T02:16:43;98348.94;;;17.43;67.96
60240;BME280;46102;39.012;-7.064;2022-10-16T02:18:45;98351.66;;;17.40;68.16
60240;BME280;46102;39.012;-7.064;2022-10-16T02:20:59;98352.44;;;17.40;68.08
60240;BME280;46102;39.012;-7.064;2022-10-16T02:23:00;98343.72;;;17.38;68.16
60240;BME280;46102;39.012;-7.064;2022-10-16T02:25:02;98347.66;;;17.37;67.99
60240;BME280;46102;39.012;-7.064;2022-10-16T02:29:42;98347.50;;;17.30;68.26
60240;BME280;46102;39.012;-7.064;2022-10-16T02:31:47;98347.44;;;17.26;68.45
60240;BME280;46102;39.012;-7.064;2022-10-16T02:33:49;98349.31;;;17.22;68.56
60240;BME280;46102;39.012;-7.064;2022-10-16T02:35:51;98352.63;;;17.28;69.12
60240;BME280;46102;39.012;-7.064;2022-10-16T02:37:53;98351.25;;;17.18;69.53
60240;BME280;46102;39.012;-7.064;2022-10-16T02:39:57;98345.97;;;17.13;69.79
60240;BME280;46102;39.012;-7.064;2022-10-16T02:41:58;98342.38;;;17.09;69.98
60240;BME280;46102;39.012;-7.064;2022-10-16T02:43:59;98333.59;;;17.07;69.95
60240;BME280;46102;39.012;-7.064;2022-10-16T02:46:00;98340.31;;;17.06;70.07
60240;BME280;46102;39.012;-7.064;2022-10-16T02:48:01;98337.53;;;17.06;70.06
60240;BME280;46102;39.012;-7.064;2022-10-16T02:50:02;98331.19;;;17.05;70.32
60240;BME280;46102;39.012;-7.064;2022-10-16T02:52:03;98329.97;;;17.03;70.47
60240;BME280;46102;39.012;-7.064;2022-10-16T02:54:04;98327.53;;;17.01;70.70
60240;BME280;46102;39.012;-7.064;2022-10-16T02:56:05;98327.50;;;16.98;71.01
60240;BME280;46102;39.012;-7.064;2022-10-16T02:58:06;98336.91;;;16.93;71.19
60240;BME280;46102;39.012;-7.064;2022-10-16T03:00:12;98320.63;;;16.92;71.46
60240;BME280;46102;39.012;-7.064;2022-10-16T03:02:13;98332.38;;;16.85;71.76
60240;BME280;46102;39.012;-7.064;2022-10-16T03:04:14;98329.91;;;16.80;71.77
60240;BME280;46102;39.012;-7.064;2022-10-16T03:06:15;98325.16;;;16.80;71.77
60240;BME280;46102;39.012;-7.064;2022-10-16T03:08:16;98332.19;;;16.78;72.06
60240;BME280;46102;39.012;-7.064;2022-10-16T03:10:18;98328.53;;;16.74;72.03
60240;BME280;46102;39.012;-7.064;2022-10-16T03:12:18;98333.28;;;16.73;72.01
60240;BME280;46102;39.012;-7.064;2022-10-16T03:14:19;98333.50;;;16.64;72.51
60240;BME280;46102;39.012;-7.064;2022-10-16T03:16:20;98334.94;;;16.58;72.79
60240;BME280;46102;39.012;-7.064;2022-10-16T03:18:21;98336.81;;;16.54;72.80
60240;BME280;46102;39.012;-7.064;2022-10-16T03:20:22;98331.28;;;16.54;72.65
60240;BME280;46102;39.012;-7.064;2022-10-16T03:22:22;98333.16;;;16.50;72.71
60240;BME280;46102;39.012;-7.064;2022-10-16T03:24:23;98335.44;;;16.44;72.92
60240;BME280;46102;39.012;-7.064;2022-10-16T03:26:24;98328.28;;;16.43;72.91
60240;BME280;46102;39.012;-7.064;2022-10-16T03:28:25;98334.63;;;16.44;73.07
60240;BME280;46102;39.012;-7.064;2022-10-16T03:30:25;98332.66;;;16.44;72.98
60240;BME280;46102;39.012;-7.064;2022-10-16T03:32:26;98333.00;;;16.43;72.93
60240;BME280;46102;39.012;-7.064;2022-10-16T03:34:28;98328.66;;;16.42;73.04
60240;BME280;46102;39.012;-7.064;2022-10-16T03:36:29;98333.41;;;16.41;73.12
60240;BME280;46102;39.012;-7.064;2022-10-16T03:38:30;98327.47;;;16.43;73.16
60240;BME280;46102;39.012;-7.064;2022-10-16T03:40:31;98335.78;;;16.43;73.60
60240;BME280;46102;39.012;-7.064;2022-10-16T03:42:32;98333.91;;;16.47;73.71
60240;BME280;46102;39.012;-7.064;2022-10-16T03:44:33;98334.53;;;16.40;74.63
60240;BME280;46102;39.012;-7.064;2022-10-16T03:46:34;98330.97;;;16.40;75.13
60240;BME280;46102;39.012;-7.064;2022-10-16T03:48:34;98333.31;;;16.38;75.24
60240;BME280;46102;39.012;-7.064;2022-10-16T03:50:35;98331.25;;;16.35;76.34
60240;BME280;46102;39.012;-7.064;2022-10-16T03:52:36;98339.47;;;16.31;76.55
60240;BME280;46102;39.012;-7.064;2022-10-16T03:54:37;98337.16;;;16.33;76.74
60240;BME280;46102;39.012;-7.064;2022-10-16T03:56:38;98327.16;;;16.29;77.24
60240;BME280;46102;39.012;-7.064;2022-10-16T03:58:39;98345.34;;;16.30;77.31
60240;BME280;46102;39.012;-7.064;2022-10-16T04:00:41;98338.69;;;16.31;77.05
60240;BME280;46102;39.012;-7.064;2022-10-16T04:02:42;98350.53;;;16.31;77.20
60240;BME280;46102;39.012;-7.064;2022-10-16T04:04:42;98356.53;;;16.33;77.48
60240;BME280;46102;39.012;-7.064;2022-10-16T04:06:43;98355.28;;;16.31;77.61
60240;BME280;46102;39.012;-7.064;2022-10-16T04:08:44;98351.06;;;16.37;77.90
60240;BME280;46102;39.012;-7.064;2022-10-16T04:10:45;98339.91;;;16.33;78.18
60240;BME280;46102;39.012;-7.064;2022-10-16T04:12:46;98338.22;;;16.29;78.44
60240;BME280;46102;39.012;-7.064;2022-10-16T04:14:46;98339.03;;;16.29;78.48
60240;BME280;46102;39.012;-7.064;2022-10-16T04:16:47;98336.81;;;16.35;78.22
60240;BME280;46102;39.012;-7.064;2022-10-16T04:18:48;98340.44;;;16.39;78.23
60240;BME280;46102;39.012;-7.064;2022-10-16T04:20:49;98346.41;;;16.41;78.06
60240;BME280;46102;39.012;-7.064;2022-10-16T04:22:49;98336.97;;;16.42;78.21
60240;BME280;46102;39.012;-7.064;2022-10-16T04:24:50;98339.09;;;16.49;77.92
60240;BME280;46102;39.012;-7.064;2022-10-16T04:26:51;98335.94;;;16.50;77.79
60240;BME280;46102;39.012;-7.064;2022-10-16T04:28:52;98334.44;;;16.53;77.84
60240;BME280;46102;39.012;-7.064;2022-10-16T04:30:52;98337.63;;;16.55;77.95
60240;BME280;46102;39.012;-7.064;2022-10-16T04:32:53;98343.25;;;16.58;77.89
60240;BME280;46102;39.012;-7.064;2022-10-16T04:34:54;98335.94;;;16.50;78.28
60240;BME280;46102;39.012;-7.064;2022-10-16T04:36:54;98337.56;;;16.51;78.08
60240;BME280;46102;39.012;-7.064;2022-10-16T04:38:55;98338.78;;;16.54;78.26
60240;BME280;46102;39.012;-7.064;2022-10-16T04:40:56;98342.78;;;16.56;78.10
60240;BME280;46102;39.012;-7.064;2022-10-16T04:42:57;98342.44;;;16.58;77.89
60240;BME280;46102;39.012;-7.064;2022-10-16T04:44:58;98345.56;;;16.56;78.05
60240;BME280;46102;39.012;-7.064;2022-10-16T04:46:58;98338.44;;;16.55;78.26
60240;BME280;46102;39.012;-7.064;2022-10-16T04:48:59;98343.16;;;16.55;78.59
60240;BME280;46102;39.012;-7.064;2022-10-16T04:51:00;98341.66;;;16.57;78.33
60240;BME280;46102;39.012;-7.064;2022-10-16T04:53:00;98338.50;;;16.59;78.21
60240;BME280;46102;39.012;-7.064;2022-10-16T04:55:01;98331.81;;;16.60;78.07
60240;BME280;46102;39.012;-7.064;2022-10-16T04:57:03;98334.19;;;16.61;78.12
60240;BME280;46102;39.012;-7.064;2022-10-16T04:59:05;98334.13;;;16.58;78.17
60240;BME280;46102;39.012;-7.064;2022-10-16T05:01:06;98341.22;;;16.55;78.18
60240;BME280;46102;39.012;-7.064;2022-10-16T05:03:06;98343.16;;;16.55;78.45
60240;BME280;46102;39.012;-7.064;2022-10-16T05:05:09;98341.66;;;16.57;78.29
60240;BME280;46102;39.012;-7.064;2022-10-16T05:07:10;98347.25;;;16.61;78.18
60240;BME280;46102;39.012;-7.064;2022-10-16T05:09:11;98350.75;;;16.58;78.08
60240;BME280;46102;39.012;-7.064;2022-10-16T05:11:11;98353.06;;;16.56;78.18
60240;BME280;46102;39.012;-7.064;2022-10-16T05:13:12;98351.09;;;16.56;78.10
60240;BME280;46102;39.012;-7.064;2022-10-16T05:15:13;98353.22;;;16.63;77.93
60240;BME280;46102;39.012;-7.064;2022-10-16T05:17:14;98358.91;;;16.51;78.24
60240;BME280;46102;39.012;-7.064;2022-10-16T05:19:15;98359.44;;;16.40;78.79
60240;BME280;46102;39.012;-7.064;2022-10-16T05:21:15;98362.22;;;16.40;78.71
60240;BME280;46102;39.012;-7.064;2022-10-16T05:23:16;98365.88;;;16.44;78.75
60240;BME280;46102;39.012;-7.064;2022-10-16T05:25:17;98365.78;;;16.41;78.75
60240;BME280;46102;39.012;-7.064;2022-10-16T05:27:18;98374.03;;;16.37;79.03
60240;BME280;46102;39.012;-7.064;2022-10-16T05:29:19;98384.03;;;16.26;79.45
60240;BME280;46102;39.012;-7.064;2022-10-16T05:31:20;98376.44;;;16.23;79.77
60240;BME280;46102;39.012;-7.064;2022-10-16T05:33:21;98376.44;;;16.23;79.92
60240;BME280;46102;39.012;-7.064;2022-10-16T05:35:22;98379.91;;;16.36;79.65
60240;BME280;46102;39.012;-7.064;2022-10-16T05:37:23;98378.22;;;16.31;79.52
60240;BME280;46102;39.012;-7.064;2022-10-16T05:39:24;98382.97;;;16.31;79.69
60240;BME280;46102;39.012;-7.064;2022-10-16T05:41:24;98383.94;;;16.22;80.05
60240;BME280;46102;39.012;-7.064;2022-10-16T05:43:30;98390.38;;;16.11;80.24
60240;BME280;46102;39.012;-7.064;2022-10-16T05:45:31;98392.34;;;16.10;80.51
60240;BME280;46102;39.012;-7.064;2022-10-16T05:47:32;98397.63;;;16.15;80.48
60240;BME280;46102;39.012;-7.064;2022-10-16T05:49:33;98401.09;;;16.12;80.64
60240;BME280;46102;39.012;-7.064;2022-10-16T05:51:33;98401.34;;;16.23;80.63
60240;BME280;46102;39.012;-7.064;2022-10-16T05:53:36;98403.66;;;16.21;80.41
60240;BME280;46102;39.012;-7.064;2022-10-16T05:55:36;98404.50;;;16.21;80.60
60240;BME280;46102;39.012;-7.064;2022-10-16T05:57:37;98407.44;;;16.13;80.79
60240;BME280;46102;39.012;-7.064;2022-10-16T05:59:38;98406.66;;;16.12;80.99
60240;BME280;46102;39.012;-7.064;2022-10-16T06:01:39;98407.44;;;16.13;81.29
60240;BME280;46102;39.012;-7.064;2022-10-16T06:03:40;98412.25;;;16.16;81.30
60240;BME280;46102;39.012;-7.064;2022-10-16T06:05:41;98411.97;;;16.21;80.96
60240;BME280;46102;39.012;-7.064;2022-10-16T06:07:43;98403.94;;;16.16;80.92
60240;BME280;46102;39.012;-7.064;2022-10-16T06:09:43;98410.38;;;16.20;80.70
60240;BME280;46102;39.012;-7.064;2022-10-16T06:11:44;98410.56;;;16.11;80.86
60240;BME280;46102;39.012;-7.064;2022-10-16T06:13:49;98410.56;;;16.11;80.73
60240;BME280;46102;39.012;-7.064;2022-10-16T06:15:50;98408.34;;;16.17;80.50
60240;BME280;46102;39.012;-7.064;2022-10-16T06:17:50;98394.66;;;16.24;80.29
60240;BME280;46102;39.012;-7.064;2022-10-16T06:19:51;98396.25;;;16.25;80.24
60240;BME280;46102;39.012;-7.064;2022-10-16T06:21:52;98399.75;;;16.22;80.56
60240;BME280;46102;39.012;-7.064;2022-10-16T06:23:54;98389.13;;;16.24;80.51
60240;BME280;46102;39.012;-7.064;2022-10-16T06:26:04;98388.41;;;16.27;79.98
60240;BME280;46102;39.012;-7.064;2022-10-16T06:28:05;98390.03;;;16.28;79.81
60240;BME280;46102;39.012;-7.064;2022-10-16T06:30:06;98389.28;;;16.31;79.71
60240;BME280;46102;39.012;-7.064;2022-10-16T06:32:07;98384.22;;;16.33;79.66
60240;BME280;46102;39.012;-7.064;2022-10-16T06:34:09;98386.25;;;16.36;79.27
60240;BME280;46102;39.012;-7.064;2022-10-16T06:36:13;98386.63;;;16.35;79.26
60240;BME280;46102;39.012;-7.064;2022-10-16T06:38:14;98390.53;;;16.34;78.97
60240;BME280;46102;39.012;-7.064;2022-10-16T06:40:15;98385.28;;;16.29;79.28
60240;BME280;46102;39.012;-7.064;2022-10-16T06:42:15;98387.97;;;16.25;79.67
60240;BME280;46102;39.012;-7.064;2022-10-16T06:44:16;98388.34;;;16.23;79.75
60240;BME280;46102;39.012;-7.064;2022-10-16T06:46:19;98389.56;;;16.26;79.65
60240;BME280;46102;39.012;-7.064;2022-10-16T06:48:21;98388.50;;;16.31;79.55
60240;BME280;46102;39.012;-7.064;2022-10-16T06:50:22;98382.22;;;16.34;79.13
60240;BME280;46102;39.012;-7.064;2022-10-16T06:52:22;98372.06;;;16.38;78.96
60240;BME280;46102;39.012;-7.064;2022-10-16T06:54:23;98374.47;;;16.39;78.96
60240;BME280;46102;39.012;-7.064;2022-10-16T06:56:26;98375.56;;;16.35;79.15
60240;BME280;46102;39.012;-7.064;2022-10-16T06:58:27;98365.72;;;16.37;79.13
60240;BME280;46102;39.012;-7.064;2022-10-16T07:00:27;98368.56;;;16.41;79.04
60240;BME280;46102;39.012;-7.064;2022-10-16T07:02:28;98371.06;;;16.46;78.90
60240;BME280;46102;39.012;-7.064;2022-10-16T07:04:29;98370.84;;;16.55;78.91
60240;BME280;46102;39.012;-7.064;2022-10-16T07:06:32;98380.69;;;16.52;79.00
60240;BME280;46102;39.012;-7.064;2022-10-16T07:08:36;98377.47;;;16.50;79.12
60240;BME280;46102;39.012;-7.064;2022-10-16T07:10:37;98374.69;;;16.50;79.00
60240;BME280;46102;39.012;-7.064;2022-10-16T07:12:38;98386.66;;;16.54;78.62
60240;BME280;46102;39.012;-7.064;2022-10-16T07:14:39;98389.88;;;16.56;78.74
60240;BME280;46102;39.012;-7.064;2022-10-16T07:16:40;98395.13;;;16.61;78.55
60240;BME280;46102;39.012;-7.064;2022-10-16T07:18:41;98402.34;;;16.66;78.28
60240;BME280;46102;39.012;-7.064;2022-10-16T07:20:43;98407.97;;;16.70;78.17
60240;BME280;46102;39.012;-7.064;2022-10-16T07:22:44;98413.88;;;16.68;78.26
60240;BME280;46102;39.012;-7.064;2022-10-16T07:24:44;98401.28;;;16.71;78.16
60240;BME280;46102;39.012;-7.064;2022-10-16T07:26:45;98404.56;;;16.76;78.20
60240;BME280;46102;39.012;-7.064;2022-10-16T07:28:46;98409.94;;;16.85;77.57
60240;BME280;46102;39.012;-7.064;2022-10-16T07:30:48;98414.69;;;16.84;77.39
60240;BME280;46102;39.012;-7.064;2022-10-16T07:32:48;98424.06;;;16.80;77.78
60240;BME280;46102;39.012;-7.064;2022-10-16T07:34:49;98427.34;;;16.85;77.68
60240;BME280;46102;39.012;-7.064;2022-10-16T07:36:51;98431.44;;;16.92;77.28
60240;BME280;46102;39.012;-7.064;2022-10-16T07:38:51;98432.25;;;16.92;76.93
60240;BME280;46102;39.012;-7.064;2022-10-16T07:41:00;98436.25;;;16.95;76.62
60240;BME280;46102;39.012;-7.064;2022-10-16T07:43:01;98441.50;;;17.00;76.64
60240;BME280;46102;39.012;-7.064;2022-10-16T07:45:02;98440.81;;;17.03;76.25
60240;BME280;46102;39.012;-7.064;2022-10-16T07:47:03;98445.91;;;17.01;76.14
60240;BME280;46102;39.012;-7.064;2022-10-16T07:49:04;98449.47;;;17.01;75.97
60240;BME280;46102;39.012;-7.064;2022-10-16T07:51:06;98443.22;;;17.04;75.78
60240;BME280;46102;39.012;-7.064;2022-10-16T07:53:07;98451.59;;;17.08;75.67
60240;BME280;46102;39.012;-7.064;2022-10-16T07:55:08;98467.94;;;17.13;75.77
60240;BME280;46102;39.012;-7.064;2022-10-16T07:57:09;98472.69;;;17.13;75.82
60240;BME280;46102;39.012;-7.064;2022-10-16T07:59:10;98462.53;;;17.01;76.05
60240;BME280;46102;39.012;-7.064;2022-10-16T08:01:13;98460.75;;;16.93;76.60
60240;BME280;46102;39.012;-7.064;2022-10-16T08:03:14;98466.28;;;16.93;76.90
60240;BME280;46102;39.012;-7.064;2022-10-16T08:05:15;98461.19;;;16.95;76.72
60240;BME280;46102;39.012;-7.064;2022-10-16T08:07:15;98464.06;;;16.98;76.57
60240;BME280;46102;39.012;-7.064;2022-10-16T08:09:16;98458.66;;;17.05;76.09
60240;BME280;46102;39.012;-7.064;2022-10-16T08:11:17;98458.81;;;17.13;75.97
60240;BME280;46102;39.012;-7.064;2022-10-16T08:13:17;98460.59;;;17.21;75.67
60240;BME280;46102;39.012;-7.064;2022-10-16T08:15:19;98459.63;;;17.33;75.31
60240;BME280;46102;39.012;-7.064;2022-10-16T08:17:20;98462.63;;;17.43;74.78
60240;BME280;46102;39.012;-7.064;2022-10-16T08:19:21;98464.38;;;17.52;74.28
60240;BME280;46102;39.012;-7.064;2022-10-16T08:21:22;98462.56;;;17.59;73.81
60240;BME280;46102;39.012;-7.064;2022-10-16T08:23:24;98465.16;;;17.72;73.57
60240;BME280;46102;39.012;-7.064;2022-10-16T08:25:26;98463.44;;;17.83;73.12
60240;BME280;46102;39.012;-7.064;2022-10-16T08:27:33;98461.59;;;17.91;72.78
60240;BME280;46102;39.012;-7.064;2022-10-16T08:29:34;98454.50;;;17.93;72.24
60240;BME280;46102;39.012;-7.064;2022-10-16T08:31:35;98458.88;;;17.94;72.29
60240;BME280;46102;39.012;-7.064;2022-10-16T08:33:36;98462.88;;;17.97;72.01
60240;BME280;46102;39.012;-7.064;2022-10-16T08:35:37;98456.97;;;17.98;72.08
60240;BME280;46102;39.012;-7.064;2022-10-16T08:37:38;98472.47;;;17.99;72.05
60240;BME280;46102;39.012;-7.064;2022-10-16T08:39:39;98474.41;;;17.99;71.95
60240;BME280;46102;39.012;-7.064;2022-10-16T08:46:40;98479.19;;;17.98;71.50
60240;BME280;46102;39.012;-7.064;2022-10-16T08:48:53;98471.28;;;18.00;71.38
60240;BME280;46102;39.012;-7.064;2022-10-16T08:50:54;98465.72;;;18.00;71.37
60240;BME280;46102;39.012;-7.064;2022-10-16T08:52:55;98478.06;;;18.03;71.31
60240;BME280;46102;39.012;-7.064;2022-10-16T08:54:57;98486.84;;;18.05;71.43
60240;BME280;46102;39.012;-7.064;2022-10-16T08:57:08;98493.19;;;18.05;71.22
60240;BME280;46102;39.012;-7.064;2022-10-16T08:59:10;98493.19;;;18.05;71.19
60240;BME280;46102;39.012;-7.064;2022-10-16T09:01:14;98507.56;;;18.11;71.01
60240;BME280;46102;39.012;-7.064;2022-10-16T09:05:55;98496.66;;;18.22;70.51
60240;BME280;46102;39.012;-7.064;2022-10-16T09:08:11;98498.38;;;18.30;70.45
60240;BME280;46102;39.012;-7.064;2022-10-16T09:12:39;98497.22;;;18.54;69.21
60240;BME280;46102;39.012;-7.064;2022-10-16T09:17:20;98521.38;;;18.77;68.60
60240;BME280;46102;39.012;-7.064;2022-10-16T09:19:30;98511.63;;;18.86;68.07
60240;BME280;46102;39.012;-7.064;2022-10-16T09:21:36;98505.38;;;18.93;67.73
60240;BME280;46102;39.012;-7.064;2022-10-16T09:23:38;98501.88;;;18.96;67.37
60240;BME280;46102;39.012;-7.064;2022-10-16T09:25:42;98506.34;;;19.04;67.25
60240;BME280;46102;39.012;-7.064;2022-10-16T09:27:47;98505.28;;;19.12;66.96
60240;BME280;46102;39.012;-7.064;2022-10-16T09:29:48;98514.50;;;19.20;66.53
60240;BME280;46102;39.012;-7.064;2022-10-16T09:31:49;98496.75;;;19.28;66.38
60240;BME280;46102;39.012;-7.064;2022-10-16T09:34:02;98494.13;;;19.39;65.98
60240;BME280;46102;39.012;-7.064;2022-10-16T09:36:06;98482.38;;;19.53;65.50
60240;BME280;46102;39.012;-7.064;2022-10-16T09:38:09;98496.91;;;19.69;64.93
60240;BME280;46102;39.012;-7.064;2022-10-16T09:40:31;98486.69;;;19.81;64.34
60240;BME280;46102;39.012;-7.064;2022-10-16T09:42:35;98476.84;;;19.90;63.72
60240;BME280;46102;39.012;-7.064;2022-10-16T09:44:38;98467.09;;;20.07;63.31
60240;BME280;46102;39.012;-7.064;2022-10-16T09:46:39;98494.34;;;20.28;62.62
60240;BME280;46102;39.012;-7.064;2022-10-16T09:48:44;98500.06;;;20.43;61.72
60240;BME280;46102;39.012;-7.064;2022-10-16T09:50:59;98484.03;;;20.32;61.42
60240;BME280;46102;39.012;-7.064;2022-10-16T09:53:05;98477.94;;;20.20;61.98
60240;BME280;46102;39.012;-7.064;2022-10-16T09:55:17;98473.94;;;20.13;62.57
60240;BME280;46102;39.012;-7.064;2022-10-16T09:57:18;98480.25;;;20.10;62.43
60240;BME280;46102;39.012;-7.064;2022-10-16T09:59:21;98479.53;;;20.17;62.77
60240;BME280;46102;39.012;-7.064;2022-10-16T10:01:30;98473.63;;;20.22;61.90
60240;BME280;46102;39.012;-7.064;2022-10-16T10:03:37;98478.00;;;20.23;62.14
60240;BME280;46102;39.012;-7.064;2022-10-16T10:05:39;98468.50;;;20.28;61.89
60240;BME280;46102;39.012;-7.064;2022-10-16T10:07:43;98466.13;;;20.30;61.91
60240;BME280;46102;39.012;-7.064;2022-10-16T10:09:46;98470.47;;;20.27;61.54
60240;BME280;46102;39.012;-7.064;2022-10-16T10:14:04;98468.59;;;20.38;60.90
60240;BME280;46102;39.012;-7.064;2022-10-16T10:16:05;98461.50;;;20.45;60.37
60240;BME280;46102;39.012;-7.064;2022-10-16T10:18:16;98463.53;;;20.51;60.28
60240;BME280;46102;39.012;-7.064;2022-10-16T10:22:27;98465.66;;;20.65;60.04
60240;BME280;46102;39.012;-7.064;2022-10-16T10:24:29;98450.94;;;20.68;59.59
60240;BME280;46102;39.012;-7.064;2022-10-16T10:26:32;98438.25;;;20.78;59.91
60240;BME280;46102;39.012;-7.064;2022-10-16T10:35:24;98441.81;;;21.41;57.24
60240;BME280;46102;39.012;-7.064;2022-10-16T10:39:57;98437.88;;;21.53;56.20
60240;BME280;46102;39.012;-7.064;2022-10-16T10:42:08;98445.50;;;21.59;55.87
60240;BME280;46102;39.012;-7.064;2022-10-16T10:46:49;98443.16;;;21.90;54.16
60240;BME280;46102;39.012;-7.064;2022-10-16T10:51:19;98433.25;;;22.54;52.86
60240;BME280;46102;39.012;-7.064;2022-10-16T11:00:31;98424.88;;;22.68;51.71
60240;BME280;46102;39.012;-7.064;2022-10-16T11:02:58;98426.03;;;22.92;51.37
60240;BME280;46102;39.012;-7.064;2022-10-16T11:07:21;98424.72;;;23.33;49.88
60240;BME280;46102;39.012;-7.064;2022-10-16T11:09:32;98433.94;;;23.33;49.36
60240;BME280;46102;39.012;-7.064;2022-10-16T11:12:05;98439.06;;;23.49;49.60
60240;BME280;46102;39.012;-7.064;2022-10-16T11:14:18;98446.53;;;23.74;49.03
60240;BME280;46102;39.012;-7.064;2022-10-16T11:16:30;98431.38;;;23.64;48.30
60240;BME280;46102;39.012;-7.064;2022-10-16T11:20:58;98431.97;;;24.07;47.37
60240;BME280;46102;39.012;-7.064;2022-10-16T11:25:28;98422.19;;;24.30;47.15
60240;BME280;46102;39.012;-7.064;2022-10-16T11:27:37;98416.00;;;24.53;46.32
60240;BME280;46102;39.012;-7.064;2022-10-16T11:29:47;98425.84;;;24.23;46.98
60240;BME280;46102;39.012;-7.064;2022-10-16T11:31:55;98422.97;;;24.34;46.62
60240;BME280;46102;39.012;-7.064;2022-10-16T11:36:33;98414.97;;;24.29;46.36
60240;BME280;46102;39.012;-7.064;2022-10-16T11:40:54;98417.88;;;24.70;45.81
60240;BME280;46102;39.012;-7.064;2022-10-16T11:43:04;98411.63;;;24.90;45.62